Time;durP1;ratioP1;P1;durP2;ratioP2;P2;SDS_P1;SDS_P2;PMS_P1;PMS_P2;Temp;Humidity;BMP_temperature;BMP_pressure;BME280_temperature;BME280_humidity;BME280_pressure;Samples;Min_cycle;Max_cycle;Signal;HPM_P1;HPM_P2
2022/11/19 04:00:59;;;;;;;;;;;5.70;99.90;;;;;;5870339;23;19935;-72
2022/11/19 04:03:26;;;;;;;;;;;5.70;99.90;;;;;;4934735;29;20033;-71
2022/11/19 04:05:53;;;;;;;;;;;5.70;99.90;;;;;;4928726;29;20025;-71
2022/11/19 04:08:19;;;;;;;;;;;5.60;99.90;;;;;;4929788;29;19927;-71
2022/11/19 04:10:46;;;;;;;;;;;5.70;99.90;;;;;;4927784;29;19933;-71
2022/11/19 04:13:13;;;;;;;;;;;5.60;99.90;;;;;;4932820;29;19939;-70
2022/11/19 04:15:39;;;;;;;;;;;5.60;99.90;;;;;;4933551;29;20405;-69
2022/11/19 04:18:07;;;;;;;;;;;5.60;99.90;;;;;;4928388;29;19931;-69
2022/11/19 04:20:34;;;;;;;;;;;5.60;99.90;;;;;;4934666;29;19934;-69
2022/11/19 04:23:01;;;;;;;;;;;5.60;99.90;;;;;;4934184;29;19962;-71
2022/11/19 04:25:28;;;;;;;;;;;5.60;99.90;;;;;;4933975;29;19934;-70
2022/11/19 04:27:56;;;;;;;;;;;5.50;99.90;;;;;;4936481;29;19927;-70
2022/11/19 04:30:23;;;;;;;;;;;5.40;99.90;;;;;;4933907;29;19927;-70
2022/11/19 04:32:50;;;;;;;;;;;5.40;99.90;;;;;;4933383;29;19927;-70
2022/11/19 04:35:20;;;;;;;;;;;5.40;99.90;;;;;;4946695;28;19930;-70
2022/11/19 04:37:47;;;;;;;;;;;5.30;99.90;;;;;;4933624;29;20370;-70
2022/11/19 04:40:14;;;;;;;;;;;5.20;99.90;;;;;;4932083;29;20398;-70
2022/11/19 04:42:41;;;;;;;;;;;5.20;99.90;;;;;;4939520;29;19932;-70
2022/11/19 04:45:08;;;;;;;;;;;5.10;99.90;;;;;;4941993;28;19926;-68
2022/11/19 04:47:36;;;;;;;;;;;5.10;99.90;;;;;;4934414;28;19927;-70
2022/11/19 04:50:03;;;;;;;;;;;5.10;99.90;;;;;;4932860;29;20401;-71
2022/11/19 04:52:32;;;;;;;;;;;5.10;99.90;;;;;;4934672;28;19927;-70
2022/11/19 04:54:59;;;;;;;;;;;5.10;99.90;;;;;;4933241;29;20390;-70
2022/11/19 04:57:26;;;;;;;;;;;5.10;99.90;;;;;;4938001;28;19926;-71
2022/11/19 04:59:52;;;;;;;;;;;5.00;99.90;;;;;;4933822;29;19930;-69
2022/11/19 05:02:19;;;;;;;;;;;5.00;99.90;;;;;;4932805;29;19927;-70
2022/11/19 05:04:46;;;;;;;;;;;5.00;99.90;;;;;;4938268;29;19927;-71
2022/11/19 05:07:13;;;;;;;;;;;5.00;99.90;;;;;;4948389;28;19963;-70
2022/11/19 05:09:41;;;;;;;;;;;5.00;99.90;;;;;;4933504;28;19931;-68
2022/11/19 05:12:08;;;;;;;;;;;5.00;99.90;;;;;;4926634;29;19934;-70
2022/11/19 05:14:37;;;;;;;;;;;4.90;99.90;;;;;;4936424;29;19927;-70
2022/11/19 05:17:04;;;;;;;;;;;4.90;99.90;;;;;;4939193;29;20021;-70
2022/11/19 05:19:30;;;;;;;;;;;4.90;99.90;;;;;;4939336;28;19966;-70
2022/11/19 05:21:57;;;;;;;;;;;4.90;99.90;;;;;;4932539;29;20350;-70
2022/11/19 05:24:24;;;;;;;;;;;4.90;99.90;;;;;;4946091;28;20353;-70
2022/11/19 05:26:52;;;;;;;;;;;4.90;99.90;;;;;;4937065;29;19927;-71
2022/11/19 05:29:19;;;;;;;;;;;4.80;99.90;;;;;;4933221;29;19947;-70
2022/11/19 05:31:45;;;;;;;;;;;4.80;99.90;;;;;;4932604;29;19953;-69
2022/11/19 05:34:12;;;;;;;;;;;4.80;99.90;;;;;;4937547;29;20363;-68
2022/11/19 05:36:39;;;;;;;;;;;4.80;99.90;;;;;;4946218;29;19934;-70
2022/11/19 05:39:06;;;;;;;;;;;4.80;99.90;;;;;;4939880;28;20003;-70
2022/11/19 05:41:32;;;;;;;;;;;4.80;99.90;;;;;;4933092;29;20381;-70
2022/11/19 05:44:01;;;;;;;;;;;4.70;99.90;;;;;;4946129;29;19931;-69
2022/11/19 05:46:27;;;;;;;;;;;4.70;99.90;;;;;;4932730;29;19927;-70
2022/11/19 05:48:54;;;;;;;;;;;4.70;99.90;;;;;;4932467;29;19974;-70
2022/11/19 05:51:21;;;;;;;;;;;4.70;99.90;;;;;;4932602;29;19930;-69
2022/11/19 05:53:48;;;;;;;;;;;4.70;99.90;;;;;;4931379;29;19935;-71
2022/11/19 05:56:15;;;;;;;;;;;4.60;99.90;;;;;;4940248;28;19942;-70
2022/11/19 05:58:42;;;;;;;;;;;4.60;99.90;;;;;;4932868;29;20393;-70
2022/11/19 06:01:10;;;;;;;;;;;4.70;99.90;;;;;;4935664;29;20338;-71
2022/11/19 06:03:37;;;;;;;;;;;4.70;99.90;;;;;;4933845;29;19935;-70
2022/11/19 06:06:04;;;;;;;;;;;4.70;99.90;;;;;;4939703;28;19962;-71
2022/11/19 06:08:30;;;;;;;;;;;4.60;99.90;;;;;;4935020;29;19927;-70
2022/11/19 06:10:57;;;;;;;;;;;4.60;99.90;;;;;;4932052;29;19927;-70
2022/11/19 06:13:24;;;;;;;;;;;4.60;99.90;;;;;;4935947;29;20389;-71
2022/11/19 06:15:51;;;;;;;;;;;4.40;99.90;;;;;;4938313;29;19933;-71
2022/11/19 06:18:19;;;;;;;;;;;4.40;99.90;;;;;;4932541;29;19977;-70
2022/11/19 06:20:46;;;;;;;;;;;4.40;99.90;;;;;;4934819;29;19927;-71
2022/11/19 06:23:13;;;;;;;;;;;4.40;99.90;;;;;;4934231;29;20044;-71
2022/11/19 06:25:39;;;;;;;;;;;4.40;99.90;;;;;;4932024;29;19934;-71
2022/11/19 06:28:06;;;;;;;;;;;4.40;99.90;;;;;;4932512;29;20370;-71
2022/11/19 06:30:33;;;;;;;;;;;4.40;99.90;;;;;;4940310;29;20393;-70
2022/11/19 06:33:00;;;;;;;;;;;4.40;99.90;;;;;;4937841;28;19938;-69
2022/11/19 06:35:28;;;;;;;;;;;4.40;99.90;;;;;;4932200;29;19927;-71
2022/11/19 06:37:55;;;;;;;;;;;4.50;99.90;;;;;;4928505;29;19943;-72
2022/11/19 06:40:22;;;;;;;;;;;4.40;99.90;;;;;;4931968;29;19935;-72
2022/11/19 06:42:48;;;;;;;;;;;4.40;99.90;;;;;;4932398;29;19931;-72
2022/11/19 06:45:15;;;;;;;;;;;4.40;99.90;;;;;;4940649;29;19930;-71
2022/11/19 06:47:42;;;;;;;;;;;4.40;99.90;;;;;;4928280;29;19927;-72
2022/11/19 06:50:10;;;;;;;;;;;4.40;99.90;;;;;;4927828;29;20003;-71
2022/11/19 06:52:38;;;;;;;;;;;4.40;99.90;;;;;;4927521;29;19938;-71
2022/11/19 06:55:05;;;;;;;;;;;4.40;99.90;;;;;;4941225;28;20387;-71
2022/11/19 06:57:32;;;;;;;;;;;4.40;99.90;;;;;;4926112;29;19927;-72
2022/11/19 06:59:59;;;;;;;;;;;4.40;99.90;;;;;;4931976;29;19930;-72
2022/11/19 07:02:25;;;;;;;;;;;4.40;99.90;;;;;;4932145;29;20350;-70
2022/11/19 07:04:52;;;;;;;;;;;4.40;99.90;;;;;;4925825;29;19931;-71
2022/11/19 07:07:19;;;;;;;;;;;4.40;99.90;;;;;;4932003;29;19931;-71
2022/11/19 07:09:47;;;;;;;;;;;4.40;99.90;;;;;;4932189;29;19949;-71
2022/11/19 07:12:14;;;;;;;;;;;4.40;99.90;;;;;;4932152;29;19974;-71
2022/11/19 07:14:41;;;;;;;;;;;4.40;99.90;;;;;;4934984;29;19930;-69
2022/11/19 07:17:08;;;;;;;;;;;4.40;99.90;;;;;;4940789;29;19927;-72
2022/11/19 07:19:34;;;;;;;;;;;4.40;99.90;;;;;;4933438;29;19927;-71
2022/11/19 07:22:01;;;;;;;;;;;4.40;99.90;;;;;;4927833;29;19927;-70
2022/11/19 07:24:28;;;;;;;;;;;4.40;99.90;;;;;;4935534;28;19927;-71
2022/11/19 07:26:56;;;;;;;;;;;4.40;99.90;;;;;;4949706;29;19931;-71
2022/11/19 07:29:23;;;;;;;;;;;4.40;99.90;;;;;;4934764;29;19931;-71
2022/11/19 07:31:52;;;;;;;;;;;4.50;99.90;;;;;;4942094;28;19938;-71
2022/11/19 07:34:18;;;;;;;;;;;4.50;99.90;;;;;;4935128;28;19927;-72
2022/11/19 07:36:46;;;;;;;;;;;4.50;99.90;;;;;;4936180;29;20303;-70
2022/11/19 07:39:12;;;;;;;;;;;4.50;99.90;;;;;;4945757;29;19931;-69
2022/11/19 07:44:25;;;;;;;;;;;4.50;99.90;;;;;;4937885;29;20398;-70
2022/11/19 07:46:52;;;;;;;;;;;4.50;99.90;;;;;;4940367;29;19962;-70
2022/11/19 07:49:19;;;;;;;;;;;4.60;99.90;;;;;;4934746;29;20346;-70
2022/11/19 07:51:46;;;;;;;;;;;4.60;99.90;;;;;;4940228;29;19931;-70
2022/11/19 07:54:14;;;;;;;;;;;4.60;99.90;;;;;;4943945;29;19926;-70
2022/11/19 07:56:40;;;;;;;;;;;4.60;99.90;;;;;;4937212;28;19927;-70
2022/11/19 07:59:07;;;;;;;;;;;4.60;99.90;;;;;;4930506;29;19982;-70
2022/11/19 08:01:36;;;;;;;;;;;4.70;99.90;;;;;;4935233;28;19927;-70
2022/11/19 08:04:04;;;;;;;;;;;4.70;99.90;;;;;;4941062;28;19927;-70
2022/11/19 08:06:33;;;;;;;;;;;4.70;99.90;;;;;;4952677;28;19927;-70
2022/11/19 08:08:59;;;;;;;;;;;4.70;99.90;;;;;;4934175;29;19930;-71
2022/11/19 08:11:26;;;;;;;;;;;4.80;99.90;;;;;;4934712;29;19927;-71
2022/11/19 08:13:53;;;;;;;;;;;4.90;99.90;;;;;;4930161;29;19934;-70
2022/11/19 08:19:02;;;;;;;;;;;5.00;99.90;;;;;;4931200;29;19934;-70
2022/11/19 08:21:29;;;;;;;;;;;5.00;99.90;;;;;;4933969;29;19926;-70
2022/11/19 08:23:56;;;;;;;;;;;5.00;99.90;;;;;;4929915;29;19931;-70
2022/11/19 08:26:23;;;;;;;;;;;5.10;99.90;;;;;;4933558;29;20013;-70
2022/11/19 08:28:50;;;;;;;;;;;5.10;99.90;;;;;;4929963;29;19982;-70
2022/11/19 08:31:17;;;;;;;;;;;5.10;99.90;;;;;;4935474;29;19934;-72
2022/11/19 08:33:43;;;;;;;;;;;5.10;99.90;;;;;;4933977;29;19927;-70
2022/11/19 08:36:12;;;;;;;;;;;5.10;99.90;;;;;;4947426;29;19926;-71
2022/11/19 08:38:38;;;;;;;;;;;5.10;99.90;;;;;;4937713;28;20390;-70
2022/11/19 08:43:49;;;;;;;;;;;5.10;99.90;;;;;;4936712;29;19923;-70
2022/11/19 08:46:16;;;;;;;;;;;5.20;99.90;;;;;;4941854;28;19926;-70
2022/11/19 08:48:43;;;;;;;;;;;5.20;99.90;;;;;;4938243;28;20051;-70
2022/11/19 08:51:10;;;;;;;;;;;5.20;99.90;;;;;;4933503;29;20291;-70
2022/11/19 08:53:38;;;;;;;;;;;5.20;99.90;;;;;;4933874;29;20006;-69
2022/11/19 08:56:05;;;;;;;;;;;5.20;99.90;;;;;;4937306;29;19927;-69
2022/11/19 08:58:32;;;;;;;;;;;5.20;99.90;;;;;;4933022;29;19969;-69
2022/11/19 09:00:58;;;;;;;;;;;5.20;99.90;;;;;;4935913;29;20353;-69
2022/11/19 09:03:25;;;;;;;;;;;5.20;99.90;;;;;;4932923;29;19927;-69
2022/11/19 09:05:58;;;;;;;;;;;5.20;99.90;;;;;;4935520;29;19935;-70
2022/11/19 09:08:24;;;;;;;;;;;5.20;99.90;;;;;;4938632;29;19927;-69
2022/11/19 09:10:52;;;;;;;;;;;5.30;99.90;;;;;;4932973;29;19973;-69
2022/11/19 09:13:19;;;;;;;;;;;5.30;99.90;;;;;;4932903;29;19931;-70
2022/11/19 09:15:47;;;;;;;;;;;5.20;99.90;;;;;;4933437;29;19934;-69
2022/11/19 09:18:14;;;;;;;;;;;5.20;99.90;;;;;;4933387;29;20382;-69
2022/11/19 09:20:41;;;;;;;;;;;5.20;99.90;;;;;;4932360;29;20037;-69
2022/11/19 09:23:08;;;;;;;;;;;5.20;99.90;;;;;;4933232;29;19996;-69
2022/11/19 09:25:35;;;;;;;;;;;5.30;99.90;;;;;;4932922;29;20359;-65
2022/11/19 09:28:03;;;;;;;;;;;5.30;99.90;;;;;;4931395;29;19941;-66
2022/11/19 09:30:30;;;;;;;;;;;5.30;99.90;;;;;;4934310;29;19927;-70
2022/11/19 09:32:58;;;;;;;;;;;5.30;99.90;;;;;;4932380;29;19978;-67
2022/11/19 09:35:25;;;;;;;;;;;5.30;99.90;;;;;;4930024;29;19944;-69
2022/11/19 09:37:52;;;;;;;;;;;5.30;99.90;;;;;;4932768;29;19934;-70
2022/11/19 09:40:20;;;;;;;;;;;5.30;99.90;;;;;;4932676;28;19974;-69
2022/11/19 09:42:53;;;;;;;;;;;5.30;99.90;;;;;;4933464;29;19990;-69
2022/11/19 09:45:25;;;;;;;;;;;5.30;99.90;;;;;;4919406;29;19930;-70
2022/11/19 09:48:13;;;;;;;;;;;5.20;99.90;;;;;;4932710;29;19931;-70
2022/11/19 09:50:44;;;;;;;;;;;5.20;99.90;;;;;;4927577;29;19926;-70
2022/11/19 09:53:14;;;;;;;;;;;5.20;99.90;;;;;;4935760;29;20317;-69
2022/11/19 09:55:42;;;;;;;;;;;5.20;99.90;;;;;;4932622;29;20393;-70
2022/11/19 09:58:12;;;;;;;;;;;5.20;99.90;;;;;;4932426;29;20398;-71
2022/11/19 10:00:43;;;;;;;;;;;5.20;99.90;;;;;;4927735;29;19956;-71
2022/11/19 10:03:12;;;;;;;;;;;5.20;99.90;;;;;;4944452;28;20283;-70
2022/11/19 10:05:44;;;;;;;;;;;5.20;99.90;;;;;;4925550;29;19931;-70
2022/11/19 10:08:17;;;;;;;;;;;5.20;99.90;;;;;;4932492;29;19931;-69
2022/11/19 10:10:48;;;;;;;;;;;5.20;99.90;;;;;;4936810;29;20386;-70
2022/11/19 10:13:21;;;;;;;;;;;5.20;99.90;;;;;;4932278;29;20425;-69
2022/11/19 10:15:54;;;;;;;;;;;5.20;99.90;;;;;;4930915;29;20413;-70
2022/11/19 10:18:23;;;;;;;;;;;5.20;99.90;;;;;;4930373;29;19927;-70
2022/11/19 10:20:55;;;;;;;;;;;5.20;99.90;;;;;;4932814;29;19934;-70
2022/11/19 10:23:26;;;;;;;;;;;5.20;99.90;;;;;;4933648;29;19926;-70
2022/11/19 10:25:55;;;;;;;;;;;5.20;99.90;;;;;;4932785;29;20003;-70
2022/11/19 10:28:24;;;;;;;;;;;5.20;99.90;;;;;;4937203;29;19986;-70
2022/11/19 10:30:54;;;;;;;;;;;5.20;99.90;;;;;;4939565;29;19982;-69
2022/11/19 10:33:23;;;;;;;;;;;5.20;99.90;;;;;;4936530;29;20357;-70
2022/11/19 10:35:53;;;;;;;;;;;5.20;99.90;;;;;;4933462;29;19934;-70
2022/11/19 10:38:22;;;;;;;;;;;5.30;99.90;;;;;;4931508;29;19970;-70
2022/11/19 10:40:50;;;;;;;;;;;5.30;99.90;;;;;;4932950;29;20416;-68
2022/11/19 10:43:21;;;;;;;;;;;5.30;99.90;;;;;;4932772;29;19927;-69
2022/11/19 10:45:48;;;;;;;;;;;5.20;99.90;;;;;;4930548;29;19934;-70
2022/11/19 10:48:20;;;;;;;;;;;5.20;99.90;;;;;;4945305;28;19950;-70
2022/11/19 10:50:47;;;;;;;;;;;5.20;99.90;;;;;;4932603;29;19946;-70
2022/11/19 10:53:15;;;;;;;;;;;5.20;99.90;;;;;;4936554;29;20341;-67
2022/11/19 10:55:44;;;;;;;;;;;5.20;99.90;;;;;;4934818;29;19927;-66
2022/11/19 10:58:13;;;;;;;;;;;5.20;99.90;;;;;;4941042;29;19930;-66
2022/11/19 11:00:41;;;;;;;;;;;5.20;99.90;;;;;;4942982;29;19994;-65
2022/11/19 11:03:15;;;;;;;;;;;5.20;99.90;;;;;;4941336;29;20290;-62
2022/11/19 11:05:55;;;;;;;;;;;5.20;99.90;;;;;;4935568;29;20482;-62
2022/11/19 11:08:22;;;;;;;;;;;5.20;99.90;;;;;;4939406;29;19931;-61
2022/11/19 11:10:50;;;;;;;;;;;5.20;99.90;;;;;;4936468;29;20001;-65
2022/11/19 11:16:17;;;;;;;;;;;5.20;99.90;;;;;;4933103;29;19974;-69
2022/11/19 11:18:45;;;;;;;;;;;5.10;99.90;;;;;;4926459;29;19931;-70
2022/11/19 11:21:23;;;;;;;;;;;5.10;99.90;;;;;;4934415;29;19982;-70
2022/11/19 11:23:51;;;;;;;;;;;5.00;99.90;;;;;;4950119;28;19926;-68
2022/11/19 11:26:19;;;;;;;;;;;5.00;99.90;;;;;;4938763;29;19930;-68
2022/11/19 11:28:53;;;;;;;;;;;5.00;99.90;;;;;;4935210;29;20013;-68
2022/11/19 11:31:27;;;;;;;;;;;5.00;99.90;;;;;;4931371;29;19934;-69
2022/11/19 11:33:55;;;;;;;;;;;5.00;99.90;;;;;;4932889;29;19931;-71
2022/11/19 11:36:25;;;;;;;;;;;5.00;99.90;;;;;;4941146;29;19927;-70
2022/11/19 11:38:53;;;;;;;;;;;5.10;99.90;;;;;;4935934;29;20373;-69
2022/11/19 11:41:21;;;;;;;;;;;5.10;99.90;;;;;;4934851;29;19934;-69
2022/11/19 11:44:01;;;;;;;;;;;5.10;99.90;;;;;;4934715;29;19970;-70
2022/11/19 11:46:34;;;;;;;;;;;5.10;99.90;;;;;;4934900;29;19970;-70
2022/11/19 11:49:01;;;;;;;;;;;5.20;99.90;;;;;;4934539;29;19926;-69
2022/11/19 11:51:32;;;;;;;;;;;5.10;99.90;;;;;;4934961;29;19930;-70
2022/11/19 11:54:03;;;;;;;;;;;5.10;99.90;;;;;;4934817;29;19931;-70
2022/11/19 11:56:30;;;;;;;;;;;5.20;99.90;;;;;;4935157;29;19927;-70
2022/11/19 11:59:12;;;;;;;;;;;5.20;99.90;;;;;;4934225;29;19926;-69
2022/11/19 12:01:41;;;;;;;;;;;5.20;99.90;;;;;;4934229;29;19927;-69
2022/11/19 12:04:10;;;;;;;;;;;5.20;99.90;;;;;;4934721;28;19976;-70
2022/11/19 12:06:43;;;;;;;;;;;5.20;99.90;;;;;;4933399;29;19935;-68
2022/11/19 12:09:15;;;;;;;;;;;5.20;99.90;;;;;;4935120;29;20031;-69
2022/11/19 12:11:56;;;;;;;;;;;5.30;99.90;;;;;;4933835;29;19930;-70
2022/11/19 12:14:25;;;;;;;;;;;5.30;99.90;;;;;;4934927;28;19927;-69
2022/11/19 12:17:02;;;;;;;;;;;5.30;99.90;;;;;;4935739;29;20008;-69
2022/11/19 12:19:37;;;;;;;;;;;5.20;99.90;;;;;;4936502;28;19926;-70
2022/11/19 12:22:08;;;;;;;;;;;5.30;99.90;;;;;;4935533;29;19966;-70
2022/11/19 12:24:49;;;;;;;;;;;5.30;99.90;;;;;;4935078;28;19935;-69
2022/11/19 12:27:19;;;;;;;;;;;5.30;99.90;;;;;;4934850;29;19930;-69
2022/11/19 12:29:51;;;;;;;;;;;5.30;99.90;;;;;;4933721;29;19927;-68
2022/11/19 12:32:22;;;;;;;;;;;5.40;99.90;;;;;;4934799;29;19941;-68
2022/11/19 12:34:59;;;;;;;;;;;5.40;99.90;;;;;;4934444;29;19927;-70
2022/11/19 12:37:34;;;;;;;;;;;5.50;99.90;;;;;;4932622;29;19931;-69
2022/11/19 12:40:04;;;;;;;;;;;5.40;99.90;;;;;;4933358;29;19926;-69
2022/11/19 12:42:39;;;;;;;;;;;5.40;99.90;;;;;;4935531;29;19935;-69
2022/11/19 12:45:14;;;;;;;;;;;5.30;99.90;;;;;;4941762;29;19970;-69
2022/11/19 12:47:49;;;;;;;;;;;5.30;99.90;;;;;;4935153;28;19934;-69
2022/11/19 12:50:21;;;;;;;;;;;5.30;99.90;;;;;;4937347;29;19934;-69
2022/11/19 12:53:07;;;;;;;;;;;5.30;99.90;;;;;;4949714;28;19934;-69
2022/11/19 12:55:38;;;;;;;;;;;5.30;99.90;;;;;;4933252;29;20302;-69
2022/11/19 12:58:12;;;;;;;;;;;5.20;99.90;;;;;;4934811;29;20338;-69
2022/11/19 13:00:41;;;;;;;;;;;5.10;99.90;;;;;;4933010;29;20365;-68
2022/11/19 13:03:11;;;;;;;;;;;5.10;99.90;;;;;;4934163;29;20386;-69
2022/11/19 13:05:41;;;;;;;;;;;5.10;99.90;;;;;;4933729;29;20056;-69
2022/11/19 13:08:12;;;;;;;;;;;5.10;99.90;;;;;;4934368;29;19985;-70
2022/11/19 13:10:42;;;;;;;;;;;5.10;99.90;;;;;;4933395;29;20342;-67
2022/11/19 13:13:09;;;;;;;;;;;5.10;99.90;;;;;;4933843;29;19935;-69
2022/11/19 13:15:38;;;;;;;;;;;5.00;99.90;;;;;;4933947;29;19935;-69
2022/11/19 13:18:09;;;;;;;;;;;5.10;99.90;;;;;;4942550;29;19988;-69
2022/11/19 13:20:40;;;;;;;;;;;5.10;99.90;;;;;;4934256;29;19927;-70
2022/11/19 13:23:07;;;;;;;;;;;5.10;99.90;;;;;;4933759;29;19934;-69
2022/11/19 13:25:38;;;;;;;;;;;5.10;99.90;;;;;;4934008;29;20358;-69
2022/11/19 13:28:12;;;;;;;;;;;5.10;99.90;;;;;;4938806;28;19927;-70
2022/11/19 13:30:41;;;;;;;;;;;5.20;99.90;;;;;;4934205;28;19927;-69
2022/11/19 13:33:11;;;;;;;;;;;5.20;99.90;;;;;;4932994;29;19928;-69
2022/11/19 13:35:43;;;;;;;;;;;5.20;99.90;;;;;;4934066;28;19926;-69
2022/11/19 13:38:13;;;;;;;;;;;5.20;99.90;;;;;;4933750;29;20317;-69
2022/11/19 13:40:44;;;;;;;;;;;5.20;99.90;;;;;;4933715;28;19955;-69
2022/11/19 13:46:02;;;;;;;;;;;5.20;99.90;;;;;;4931197;29;19922;-69
2022/11/19 13:48:31;;;;;;;;;;;5.20;99.90;;;;;;4933695;29;19927;-69
2022/11/19 13:51:00;;;;;;;;;;;5.30;99.90;;;;;;4933757;29;19930;-70
2022/11/19 13:53:31;;;;;;;;;;;5.30;99.90;;;;;;4933742;29;19930;-70
2022/11/19 13:56:00;;;;;;;;;;;5.30;99.90;;;;;;4933840;29;19931;-69
2022/11/19 13:58:30;;;;;;;;;;;5.30;99.90;;;;;;4933555;29;19931;-68
2022/11/19 14:01:03;;;;;;;;;;;5.30;99.90;;;;;;4933168;29;19931;-70
2022/11/19 14:03:38;;;;;;;;;;;5.30;99.90;;;;;;4933330;29;20354;-70
2022/11/19 14:06:20;;;;;;;;;;;5.30;99.90;;;;;;4933562;29;20386;-69
2022/11/19 14:08:56;;;;;;;;;;;5.30;99.90;;;;;;4942952;29;19931;-69
2022/11/19 14:11:31;;;;;;;;;;;5.20;99.90;;;;;;4944807;28;19934;-71
2022/11/19 14:26:18;;;;;;;;;;;5.20;99.90;;;;;;4931246;29;20357;-70
2022/11/19 14:28:45;;;;;;;;;;;5.00;99.90;;;;;;4919546;29;19982;-70
2022/11/19 14:31:13;;;;;;;;;;;4.90;99.90;;;;;;4937398;29;19927;-70
2022/11/19 14:33:58;;;;;;;;;;;5.00;99.90;;;;;;4941512;29;20421;-69
2022/11/19 14:36:28;;;;;;;;;;;4.90;99.90;;;;;;4947929;29;19950;-67
2022/11/19 14:38:56;;;;;;;;;;;5.00;99.90;;;;;;4930683;29;19950;-70
2022/11/19 14:41:26;;;;;;;;;;;5.00;99.90;;;;;;4943292;29;19927;-70
2022/11/19 14:44:08;;;;;;;;;;;5.00;99.90;;;;;;4931553;29;19926;-70
2022/11/19 14:46:35;;;;;;;;;;;5.00;99.90;;;;;;4936247;29;19934;-73
2022/11/19 14:49:04;;;;;;;;;;;5.00;99.90;;;;;;4935903;29;19927;-71
2022/11/19 14:51:33;;;;;;;;;;;4.90;99.90;;;;;;4936032;29;19927;-70
2022/11/19 14:54:03;;;;;;;;;;;4.90;99.90;;;;;;4939819;29;19931;-70
2022/11/19 14:56:30;;;;;;;;;;;4.90;99.90;;;;;;4940390;29;19927;-70
2022/11/19 14:59:08;;;;;;;;;;;4.90;99.90;;;;;;4937291;29;19931;-70
2022/11/19 15:01:48;;;;;;;;;;;4.90;99.90;;;;;;4936584;29;19934;-72
2022/11/19 15:04:16;;;;;;;;;;;4.80;99.90;;;;;;4941067;28;19927;-70
2022/11/19 15:06:44;;;;;;;;;;;4.90;99.90;;;;;;4936724;29;20002;-71
2022/11/19 15:09:11;;;;;;;;;;;4.90;99.90;;;;;;4940135;28;19927;-70
2022/11/19 15:11:52;;;;;;;;;;;4.90;99.90;;;;;;4937847;29;19990;-69
2022/11/19 15:14:38;;;;;;;;;;;4.90;99.90;;;;;;4938417;29;19930;-70
2022/11/19 15:17:07;;;;;;;;;;;4.90;99.90;;;;;;4935820;29;19927;-70
2022/11/19 15:19:37;;;;;;;;;;;4.80;99.90;;;;;;4941846;29;20017;-70
2022/11/19 15:22:29;;;;;;;;;;;4.80;99.90;;;;;;4936784;29;20443;-70
2022/11/19 15:25:02;;;;;;;;;;;4.80;99.90;;;;;;4936476;29;19927;-71
2022/11/19 15:27:37;;;;;;;;;;;4.80;99.90;;;;;;4936707;29;19974;-70
2022/11/19 15:30:06;;;;;;;;;;;4.80;99.90;;;;;;4924365;29;19933;-70
2022/11/19 15:32:47;;;;;;;;;;;4.80;99.90;;;;;;4938323;29;20017;-68
2022/11/19 15:35:26;;;;;;;;;;;4.80;99.90;;;;;;4916401;29;20017;-69
2022/11/19 15:37:54;;;;;;;;;;;4.80;99.90;;;;;;4934699;29;19988;-71
2022/11/19 15:40:22;;;;;;;;;;;4.70;99.90;;;;;;4945822;28;19927;-70
2022/11/19 15:42:51;;;;;;;;;;;4.70;99.90;;;;;;4935390;29;19926;-68
2022/11/19 15:45:20;;;;;;;;;;;4.70;99.90;;;;;;4935412;29;19942;-70
2022/11/19 15:47:48;;;;;;;;;;;4.70;99.90;;;;;;4935573;29;19935;-70
2022/11/19 15:50:16;;;;;;;;;;;4.70;99.90;;;;;;4940347;29;19950;-70
2022/11/19 15:52:56;;;;;;;;;;;4.70;99.90;;;;;;4942515;29;19934;-70
2022/11/19 15:55:25;;;;;;;;;;;4.70;99.90;;;;;;4941660;29;19926;-70
2022/11/19 15:57:52;;;;;;;;;;;4.70;99.90;;;;;;4929340;29;19986;-71
2022/11/19 16:00:20;;;;;;;;;;;4.70;99.90;;;;;;4947052;28;20440;-71
2022/11/19 16:02:47;;;;;;;;;;;4.70;99.90;;;;;;4941471;29;19927;-71
2022/11/19 16:05:19;;;;;;;;;;;4.70;99.90;;;;;;4937445;29;19931;-71
2022/11/19 16:07:48;;;;;;;;;;;4.70;99.90;;;;;;4934384;29;19934;-71
2022/11/19 16:10:15;;;;;;;;;;;4.70;99.90;;;;;;4936698;29;19994;-71
2022/11/19 16:18:35;;;;;;;;;;;4.70;99.90;;;;;;4909358;29;19923;-72
2022/11/19 16:21:02;;;;;;;;;;;4.60;99.90;;;;;;4928608;29;20263;-70
2022/11/19 16:25:00;;;;;;;;;;;4.60;99.90;;;;;;4935677;29;20287;-69
2022/11/19 16:26:17;;;;;;;;;;;4.60;99.90;;;;;;4934083;29;19974;-70
2022/11/19 16:28:44;;;;;;;;;;;4.60;99.90;;;;;;4936742;28;19927;-69
2022/11/19 16:31:11;;;;;;;;;;;4.60;99.90;;;;;;4932243;29;19931;-70
2022/11/19 16:33:45;;;;;;;;;;;4.60;99.90;;;;;;4933142;29;20386;-70
2022/11/19 16:36:12;;;;;;;;;;;4.50;99.90;;;;;;4931107;29;19982;-67
2022/11/19 16:38:42;;;;;;;;;;;4.50;99.90;;;;;;4933768;29;19931;-69
2022/11/19 16:43:54;;;;;;;;;;;4.50;99.90;;;;;;4936080;29;19930;-72
2022/11/19 16:46:22;;;;;;;;;;;4.50;99.90;;;;;;4932234;29;19927;-69
2022/11/19 16:48:53;;;;;;;;;;;4.50;99.90;;;;;;4939126;29;19930;-71
2022/11/19 16:51:25;;;;;;;;;;;4.50;99.90;;;;;;4934139;29;19934;-70
2022/11/19 16:53:53;;;;;;;;;;;4.50;99.90;;;;;;4930418;29;19927;-70
2022/11/19 16:56:20;;;;;;;;;;;4.50;99.90;;;;;;4933532;29;19927;-69
2022/11/19 16:58:47;;;;;;;;;;;4.50;99.90;;;;;;4936105;28;19981;-70
2022/11/19 17:01:17;;;;;;;;;;;4.50;99.90;;;;;;4940678;28;19935;-70
2022/11/19 17:03:44;;;;;;;;;;;4.50;99.90;;;;;;4933350;29;19938;-70
2022/11/19 17:06:19;;;;;;;;;;;4.60;99.90;;;;;;4952956;28;19977;-69
2022/11/19 17:08:54;;;;;;;;;;;4.60;99.90;;;;;;4933582;29;19934;-70
2022/11/19 17:14:19;;;;;;;;;;;4.50;99.90;;;;;;4929328;29;19927;-68
2022/11/19 17:16:47;;;;;;;;;;;4.50;99.90;;;;;;4933617;28;20052;-68
2022/11/19 17:19:15;;;;;;;;;;;4.50;99.90;;;;;;4939341;29;20405;-69
2022/11/19 17:21:46;;;;;;;;;;;4.50;99.90;;;;;;4932562;29;20352;-72
2022/11/19 17:24:13;;;;;;;;;;;4.40;99.90;;;;;;4939431;29;19934;-70
2022/11/19 17:26:46;;;;;;;;;;;4.50;99.90;;;;;;4935701;29;20018;-71
2022/11/19 17:29:19;;;;;;;;;;;4.50;99.90;;;;;;4944733;29;19974;-70
2022/11/19 17:31:46;;;;;;;;;;;4.50;99.90;;;;;;4934429;29;20024;-69
2022/11/19 17:34:19;;;;;;;;;;;4.50;99.90;;;;;;4947553;29;20010;-70
2022/11/19 17:36:46;;;;;;;;;;;4.50;99.90;;;;;;4934774;29;19934;-71
2022/11/19 17:39:13;;;;;;;;;;;4.50;99.90;;;;;;4925794;29;19951;-69
2022/11/19 17:44:38;;;;;;;;;;;4.50;99.90;;;;;;4932694;29;19926;-70
2022/11/19 17:47:10;;;;;;;;;;;4.50;99.90;;;;;;4932571;29;19934;-69
2022/11/19 17:49:36;;;;;;;;;;;4.50;99.90;;;;;;4932610;29;19935;-70
2022/11/19 17:52:03;;;;;;;;;;;4.50;99.90;;;;;;4935660;28;20450;-69
2022/11/19 17:54:30;;;;;;;;;;;4.50;99.90;;;;;;4920842;29;19931;-70
2022/11/19 17:56:59;;;;;;;;;;;4.50;99.90;;;;;;4933433;29;19927;-69
2022/11/19 17:59:25;;;;;;;;;;;4.50;99.90;;;;;;4932542;29;19966;-70
2022/11/19 18:01:52;;;;;;;;;;;4.50;99.90;;;;;;4942028;28;19927;-71
2022/11/19 18:04:19;;;;;;;;;;;4.50;99.90;;;;;;4938688;29;20394;-71
2022/11/19 18:06:48;;;;;;;;;;;4.40;99.90;;;;;;4932889;29;19934;-71
2022/11/19 18:09:17;;;;;;;;;;;4.40;99.90;;;;;;4927821;29;20203;-78
2022/11/19 18:11:44;;;;;;;;;;;4.30;99.90;;;;;;4931898;29;19966;-70
2022/11/19 18:14:12;;;;;;;;;;;4.20;99.90;;;;;;4932927;29;20338;-68
2022/11/19 18:16:40;;;;;;;;;;;4.20;99.90;;;;;;4929167;29;19938;-70
2022/11/19 18:19:10;;;;;;;;;;;4.20;99.90;;;;;;4933138;29;19931;-70
2022/11/19 18:21:37;;;;;;;;;;;4.20;99.90;;;;;;4933023;29;19939;-69
2022/11/19 18:24:04;;;;;;;;;;;4.10;99.90;;;;;;4932973;29;20299;-70
2022/11/19 18:26:31;;;;;;;;;;;4.10;99.90;;;;;;4933176;29;19974;-70
2022/11/19 18:28:57;;;;;;;;;;;4.10;99.90;;;;;;4933051;29;19927;-70
2022/11/19 18:31:27;;;;;;;;;;;4.10;99.90;;;;;;4933089;29;19926;-70
2022/11/19 18:33:54;;;;;;;;;;;4.00;99.90;;;;;;4935777;29;19931;-70
2022/11/19 18:36:21;;;;;;;;;;;4.00;99.90;;;;;;4938363;29;19927;-70
2022/11/19 18:38:48;;;;;;;;;;;4.00;99.90;;;;;;4942229;28;19935;-70
2022/11/19 18:41:17;;;;;;;;;;;4.00;99.90;;;;;;4932948;29;19974;-70
2022/11/19 18:46:30;;;;;;;;;;;3.90;99.90;;;;;;4936723;29;19923;-69
2022/11/19 18:48:56;;;;;;;;;;;3.90;99.90;;;;;;4927667;29;19934;-70
2022/11/19 18:51:24;;;;;;;;;;;3.90;99.90;;;;;;4933307;29;19927;-70
2022/11/19 18:53:51;;;;;;;;;;;3.90;99.90;;;;;;4938233;29;19982;-70
2022/11/19 18:56:18;;;;;;;;;;;3.90;99.90;;;;;;4943030;28;20344;-70
2022/11/19 18:58:45;;;;;;;;;;;3.90;99.90;;;;;;4935757;29;19927;-70
2022/11/19 19:01:11;;;;;;;;;;;3.90;99.90;;;;;;4935731;28;19930;-69
2022/11/19 19:03:40;;;;;;;;;;;3.90;99.90;;;;;;4932887;29;20317;-70
2022/11/19 19:06:07;;;;;;;;;;;3.90;99.90;;;;;;4933075;29;20422;-70
2022/11/19 19:08:35;;;;;;;;;;;3.90;99.90;;;;;;4932885;29;19933;-70
2022/11/19 19:13:44;;;;;;;;;;;3.90;99.90;;;;;;4935119;29;19922;-70
2022/11/19 19:16:11;;;;;;;;;;;3.90;99.90;;;;;;4936287;29;19982;-70
2022/11/19 19:18:39;;;;;;;;;;;3.90;99.90;;;;;;4936420;29;19942;-70
2022/11/19 19:21:11;;;;;;;;;;;4.00;99.90;;;;;;4935912;29;19931;-70
2022/11/19 19:23:38;;;;;;;;;;;3.90;99.90;;;;;;4936208;29;19934;-70
2022/11/19 19:26:06;;;;;;;;;;;4.00;99.90;;;;;;4935963;29;19927;-70
2022/11/19 19:28:33;;;;;;;;;;;4.00;99.90;;;;;;4936308;29;19927;-70